createdAt,value
2023-04-22T00:01:24.558Z,97850.63
2023-04-22T00:03:51.884Z,97850.06
2023-04-22T00:06:18.917Z,97853.28
2023-04-22T00:08:45.488Z,97859.72
2023-04-22T00:11:12.124Z,97860.28
2023-04-22T00:13:38.680Z,97859.25
2023-04-22T00:16:05.478Z,97846.84
2023-04-22T00:18:35.869Z,97860.81
2023-04-22T00:21:03.150Z,97850.91
2023-04-22T00:23:29.832Z,97853.91
2023-04-22T00:25:56.334Z,97856.06
2023-04-22T00:28:22.813Z,97852.75
2023-04-22T00:30:49.345Z,97853.31
2023-04-22T00:33:15.826Z,97861.91
2023-04-22T00:35:42.304Z,97853.88
2023-04-22T00:38:08.791Z,97860.31
2023-04-22T00:40:35.233Z,97858.75
2023-04-22T00:43:02.889Z,97853.38
2023-04-22T00:45:30.656Z,97851.19
2023-04-22T00:47:57.613Z,97847.94
2023-04-22T00:50:24.232Z,97836.88
2023-04-22T00:52:50.717Z,97837.13
2023-04-22T00:55:17.364Z,97843.94
2023-04-22T00:57:44.488Z,97840.88
2023-04-22T01:00:11.671Z,97835.00
2023-04-22T01:02:38.946Z,97834.41
2023-04-22T01:05:08.507Z,97838.19
2023-04-22T01:07:36.358Z,97839.44
2023-04-22T01:10:03.862Z,97844.47
2023-04-22T01:12:30.420Z,97839.72
2023-04-22T01:14:57.049Z,97834.28
2023-04-22T01:17:24.791Z,97839.66
2023-04-22T01:19:52.737Z,97836.31
2023-04-22T01:22:20.766Z,97842.31
2023-04-22T01:24:47.471Z,97841.44
2023-04-22T01:27:14.323Z,97842.16
2023-04-22T01:29:41.053Z,97841.81
2023-04-22T01:32:07.944Z,97841.91
2023-04-22T01:34:34.658Z,97842.72
2023-04-22T01:37:01.212Z,97843.22
2023-04-22T01:39:27.897Z,97853.19
2023-04-22T01:41:55.697Z,97852.84
2023-04-22T01:44:22.690Z,97850.22
2023-04-22T01:46:49.187Z,97849.59
2023-04-22T01:49:15.631Z,97851.41
2023-04-22T01:51:42.188Z,97850.09
2023-04-22T01:54:10.285Z,97852.75
2023-04-22T01:56:38.686Z,97858.63
2023-04-22T01:59:05.208Z,97861.38
2023-04-22T02:01:31.741Z,97863.28
2023-04-22T02:03:58.288Z,97870.25
2023-04-22T02:06:24.843Z,97872.19
2023-04-22T02:08:51.307Z,97875.19
2023-04-22T02:11:17.797Z,97864.97
2023-04-22T02:13:44.994Z,97871.19
2023-04-22T02:16:11.606Z,97872.88
2023-04-22T02:18:38.208Z,97877.63
2023-04-22T02:21:04.721Z,97868.56
2023-04-22T02:23:31.210Z,97869.63
2023-04-22T02:25:57.698Z,97873.66
2023-04-22T02:28:24.301Z,97871.06
2023-04-22T02:30:50.928Z,97874.94
2023-04-22T02:33:17.503Z,97880.38
2023-04-22T02:35:43.938Z,97886.28
2023-04-22T02:38:11.009Z,97887.78
2023-04-22T02:40:37.531Z,97890.47
2023-04-22T02:43:04.344Z,97884.56
2023-04-22T02:45:30.901Z,97884.06
2023-04-22T02:47:57.425Z,97894.28
2023-04-22T02:50:24.064Z,97892.22
2023-04-22T02:52:51.331Z,97901.63
2023-04-22T02:55:17.948Z,97901.25
2023-04-22T02:57:44.407Z,97903.44
2023-04-22T03:00:11.357Z,97907.72
2023-04-22T03:02:38.791Z,97907.63
2023-04-22T03:05:06.056Z,97912.06
2023-04-22T03:07:32.594Z,97914.41
2023-04-22T03:09:59.128Z,97918.97
2023-04-22T03:12:25.621Z,97920.09
2023-04-22T03:14:52.118Z,97916.28
2023-04-22T03:17:18.713Z,97910.38
2023-04-22T03:19:45.251Z,97911.19
2023-04-22T03:22:11.753Z,97911.91
2023-04-22T03:24:38.342Z,97918.59
2023-04-22T03:27:05.389Z,97916.16
2023-04-22T03:29:32.365Z,97903.88
2023-04-22T03:31:58.941Z,97907.53
2023-04-22T03:34:25.606Z,97904.13
2023-04-22T03:36:52.232Z,97906.75
2023-04-22T03:39:18.698Z,97904.78
2023-04-22T03:41:45.350Z,97901.56
2023-04-22T03:44:11.846Z,97897.81
2023-04-22T03:46:38.261Z,97900.50
2023-04-22T03:49:05.537Z,97901.28
2023-04-22T03:51:32.222Z,97891.69
2023-04-22T03:53:58.698Z,97899.09
2023-04-22T03:56:25.519Z,97906.53
2023-04-22T03:58:52.027Z,97904.84
2023-04-22T04:01:18.540Z,97909.03
2023-04-22T04:03:45.239Z,97908.25
2023-04-22T04:06:12.027Z,97902.28
2023-04-22T04:08:38.544Z,97896.34
2023-04-22T04:11:05.064Z,97908.63
2023-04-22T04:13:32.457Z,97911.22
2023-04-22T04:16:00.470Z,97906.13
2023-04-22T04:18:27.385Z,97902.63
2023-04-22T04:20:53.902Z,97896.31
2023-04-22T04:23:20.411Z,97903.38
2023-04-22T04:25:47.005Z,97918.81
2023-04-22T04:28:13.828Z,97911.75
2023-04-22T04:30:41.732Z,97892.44
2023-04-22T04:33:08.610Z,97890.91
2023-04-22T04:35:37.513Z,97898.94
2023-04-22T04:38:05.651Z,97888.72
2023-04-22T04:40:32.710Z,97891.94
2023-04-22T04:43:02.551Z,97886.13
2023-04-22T04:45:30.026Z,97889.19
2023-04-22T04:47:56.865Z,97884.78
2023-04-22T04:50:23.673Z,97879.44
2023-04-22T04:52:50.283Z,97893.91
2023-04-22T04:55:17.606Z,97892.84
2023-04-22T04:57:45.608Z,97903.81
2023-04-22T05:00:14.065Z,97903.06
2023-04-22T05:02:41.084Z,97904.53
2023-04-22T05:05:08.649Z,97901.00
2023-04-22T05:07:35.516Z,97904.66
2023-04-22T05:10:02.774Z,97906.38
2023-04-22T05:12:29.242Z,97911.06
2023-04-22T05:14:55.741Z,97913.31
2023-04-22T05:17:22.339Z,97921.44
2023-04-22T05:19:48.910Z,97926.16
2023-04-22T05:22:15.881Z,97924.84
2023-04-22T05:24:42.345Z,97923.22
2023-04-22T05:27:09.305Z,97912.97
2023-04-22T05:29:36.714Z,97909.16
2023-04-22T05:32:03.221Z,97924.50
2023-04-22T05:34:29.711Z,97931.97
2023-04-22T05:36:56.186Z,97922.88
2023-04-22T05:39:22.759Z,97924.13
2023-04-22T05:41:49.371Z,97928.00
2023-04-22T05:44:17.509Z,97932.00
2023-04-22T05:46:44.105Z,97931.41
2023-04-22T05:49:10.606Z,97923.69
2023-04-22T05:51:37.174Z,97921.84
2023-04-22T05:54:03.921Z,97921.00
2023-04-22T05:56:30.530Z,97931.78
2023-04-22T05:58:57.029Z,97934.38
2023-04-22T06:01:24.818Z,97933.34
2023-04-22T06:03:51.674Z,97950.56
2023-04-22T06:06:18.736Z,97951.72
2023-04-22T06:08:45.263Z,97957.47
2023-04-22T06:11:11.798Z,97963.50
2023-04-22T06:13:38.305Z,97945.66
2023-04-22T06:18:32.876Z,97951.03
2023-04-22T06:20:59.408Z,97959.44
2023-04-22T06:23:26.110Z,97951.31
2023-04-22T06:25:52.583Z,97956.97
2023-04-22T06:28:19.068Z,97956.09
2023-04-22T06:30:45.573Z,97953.47
2023-04-22T06:33:12.645Z,97954.31
2023-04-22T06:35:39.263Z,97962.47
2023-04-22T06:38:05.770Z,97968.97
2023-04-22T06:40:32.313Z,97972.78
2023-04-22T06:42:59.775Z,97964.09
2023-04-22T06:45:26.387Z,97964.09
2023-04-22T06:47:56.043Z,97970.38
2023-04-22T06:50:22.792Z,97974.44
2023-04-22T06:52:49.503Z,97985.56
2023-04-22T06:55:16.039Z,97966.22
2023-04-22T06:57:42.541Z,97971.34
2023-04-22T07:00:09.378Z,97971.41
2023-04-22T07:02:35.893Z,97976.38
2023-04-22T07:05:02.426Z,97972.03
2023-04-22T07:07:29.159Z,97975.81
2023-04-22T07:09:55.754Z,97977.97
2023-04-22T07:12:22.304Z,97980.69
2023-04-22T07:14:49.612Z,97975.78
2023-04-22T07:17:19.309Z,97981.78
2023-04-22T07:19:45.816Z,97987.19
2023-04-22T07:22:12.413Z,97983.94
2023-04-22T07:24:39.873Z,97980.19
2023-04-22T07:27:06.672Z,97968.16
2023-04-22T07:29:34.036Z,97963.59
2023-04-22T07:32:00.618Z,97969.06
2023-04-22T07:34:27.226Z,97964.25
2023-04-22T07:36:53.782Z,97962.84
2023-04-22T07:39:20.589Z,97957.78
2023-04-22T07:41:47.060Z,97944.84
2023-04-22T07:44:17.294Z,97948.63
2023-04-22T07:46:44.039Z,97950.50
2023-04-22T07:49:10.521Z,97956.13
2023-04-22T07:51:37.033Z,97952.31
2023-04-22T07:54:03.667Z,97951.00
2023-04-22T07:56:30.507Z,97946.50
2023-04-22T07:58:56.996Z,97946.69
2023-04-22T08:01:23.516Z,97944.31
2023-04-22T08:03:50.237Z,97947.03
2023-04-22T08:06:17.322Z,97939.53
2023-04-22T08:08:43.848Z,97929.28
2023-04-22T08:11:10.347Z,97919.63
2023-04-22T08:13:36.759Z,97930.16
2023-04-22T08:16:03.471Z,97939.63
2023-04-22T08:18:30.322Z,97938.59
2023-04-22T08:20:56.770Z,97940.22
2023-04-22T08:23:23.433Z,97932.19
2023-04-22T08:25:50.121Z,97938.94
2023-04-22T08:28:16.684Z,97930.91
2023-04-22T08:30:43.226Z,97925.75
2023-04-22T08:33:09.790Z,97924.28
2023-04-22T08:35:36.661Z,97918.75
2023-04-22T08:38:03.327Z,97918.03
2023-04-22T08:40:30.032Z,97912.72
2023-04-22T08:42:57.567Z,97917.44
2023-04-22T08:45:24.290Z,97911.88
2023-04-22T08:47:52.477Z,97920.16
2023-04-22T08:50:21.380Z,97925.41
2023-04-22T08:52:48.071Z,97924.78
2023-04-22T08:55:14.496Z,97916.75
2023-04-22T08:57:41.326Z,97907.47
2023-04-22T09:00:11.117Z,97904.41
2023-04-22T09:02:39.773Z,97900.03
2023-04-22T09:05:09.382Z,97889.56
2023-04-22T09:07:36.516Z,97894.91
2023-04-22T09:10:03.236Z,97891.53
2023-04-22T09:12:29.811Z,97908.97
2023-04-22T09:14:56.431Z,97902.00
2023-04-22T09:17:38.393Z,97906.44
2023-04-22T09:20:07.234Z,97911.88
2023-04-22T09:22:45.075Z,97904.13
2023-04-22T09:25:22.656Z,97902.94
2023-04-22T09:27:59.410Z,97894.75
2023-04-22T09:30:31.129Z,97892.97
2023-04-22T09:33:02.639Z,97885.47
2023-04-22T09:35:34.992Z,97886.38
2023-04-22T09:38:04.836Z,97889.47
2023-04-22T09:40:32.081Z,97891.91
2023-04-22T09:43:02.548Z,97879.03
2023-04-22T09:45:33.312Z,97892.91
2023-04-22T09:48:03.160Z,97884.25
2023-04-22T09:50:29.694Z,97893.91
2023-04-22T09:52:59.022Z,97885.06
2023-04-22T09:55:27.936Z,97886.09
2023-04-22T09:57:56.457Z,97890.41
2023-04-22T10:00:30.723Z,97880.41
2023-04-22T10:02:57.266Z,97880.13
2023-04-22T10:05:25.417Z,97870.66
2023-04-22T10:07:52.194Z,97876.84
2023-04-22T10:10:18.763Z,97869.53
2023-04-22T10:12:47.415Z,97870.13
2023-04-22T10:15:14.208Z,97866.09
2023-04-22T10:17:42.138Z,97873.09
2023-04-22T10:20:16.145Z,97872.47
2023-04-22T10:22:43.325Z,97868.66
2023-04-22T10:25:21.477Z,97864.09
2023-04-22T10:28:01.705Z,97866.50
2023-04-22T10:30:30.564Z,97856.44
2023-04-22T10:33:17.055Z,97856.78
2023-04-22T10:36:09.242Z,97854.72
2023-04-22T10:38:37.317Z,97860.38
2023-04-22T10:41:04.150Z,97854.75
2023-04-22T10:43:55.179Z,97857.44
2023-04-22T10:46:32.134Z,97856.75
2023-04-22T10:49:12.105Z,97861.53
2023-04-22T10:51:42.537Z,97852.88
2023-04-22T10:54:36.523Z,97853.44
2023-04-22T10:57:08.836Z,97853.72
2023-04-22T10:59:42.520Z,97851.25
2023-04-22T11:02:11.754Z,97851.88
2023-04-22T11:04:39.453Z,97843.69
2023-04-22T11:07:16.281Z,97853.84
2023-04-22T11:09:47.553Z,97858.38
2023-04-22T11:12:35.959Z,97851.69
2023-04-22T11:15:06.205Z,97867.84
2023-04-22T11:17:32.894Z,97865.59
2023-04-22T11:19:59.923Z,97862.47
2023-04-22T11:22:27.097Z,97873.44
2023-04-22T11:24:57.491Z,97871.56
2023-04-22T11:27:27.816Z,97877.34
2023-04-22T11:30:08.493Z,97868.75
2023-04-22T11:32:36.629Z,97852.88
2023-04-22T11:35:05.244Z,97852.94
2023-04-22T11:37:31.777Z,97848.97
2023-04-22T11:40:21.458Z,97842.72
2023-04-22T11:42:49.340Z,97848.16
2023-04-22T11:45:16.260Z,97846.75
2023-04-22T11:47:43.173Z,97843.06
2023-04-22T11:50:11.857Z,97837.78
2023-04-22T11:52:57.108Z,97839.47
2023-04-22T11:55:31.554Z,97837.06
2023-04-22T11:57:59.683Z,97835.13
2023-04-22T12:00:31.902Z,97831.47
2023-04-22T12:03:07.982Z,97837.22
2023-04-22T12:05:39.704Z,97828.69
2023-04-22T12:08:11.219Z,97822.41
2023-04-22T12:10:47.805Z,97826.13
2023-04-22T12:13:20.871Z,97825.59
2023-04-22T12:15:48.184Z,97827.41
2023-04-22T12:18:14.693Z,97827.97
2023-04-22T12:20:42.230Z,97830.22
2023-04-22T12:23:17.161Z,97827.97
2023-04-22T12:25:43.784Z,97826.38
2023-04-22T12:28:11.159Z,97816.66
2023-04-22T12:30:37.626Z,97819.72
2023-04-22T12:33:04.169Z,97819.00
2023-04-22T12:35:30.671Z,97827.38
2023-04-22T12:37:57.220Z,97823.97
2023-04-22T12:40:23.829Z,97821.34
2023-04-22T12:42:50.414Z,97821.44
2023-04-22T12:45:16.887Z,97819.81
2023-04-22T12:47:43.448Z,97816.03
2023-04-22T12:50:09.954Z,97822.50
2023-04-22T12:52:36.561Z,97825.94
2023-04-22T12:55:03.878Z,97831.28
2023-04-22T12:57:30.410Z,97845.16
2023-04-22T12:59:58.256Z,97850.31
2023-04-22T13:02:24.902Z,97854.31
2023-04-22T13:04:51.687Z,97864.84
2023-04-22T13:07:19.216Z,97853.88
2023-04-22T13:09:45.765Z,97851.47
2023-04-22T13:12:12.261Z,97856.75
2023-04-22T13:14:39.202Z,97852.94
2023-04-22T13:17:06.228Z,97861.19
2023-04-22T13:19:35.126Z,97859.06
2023-04-22T13:22:01.752Z,97859.34
2023-04-22T13:24:28.332Z,97853.16
2023-04-22T13:26:54.936Z,97858.03
2023-04-22T13:29:21.731Z,97861.09
2023-04-22T13:31:48.303Z,97858.78
2023-04-22T13:34:15.357Z,97857.38
2023-04-22T13:36:41.960Z,97856.75
2023-04-22T13:39:08.944Z,97852.16
2023-04-22T13:41:36.124Z,97851.72
2023-04-22T13:44:04.366Z,97851.41
2023-04-22T13:46:31.139Z,97850.94
2023-04-22T13:48:58.650Z,97861.09
2023-04-22T13:51:25.197Z,97862.63
2023-04-22T13:53:51.837Z,97870.34
2023-04-22T13:56:18.389Z,97862.47
2023-04-22T13:58:44.932Z,97858.84
2023-04-22T14:01:11.517Z,97868.19
2023-04-22T14:03:38.147Z,97874.63
2023-04-22T14:06:04.878Z,97857.28
2023-04-22T14:08:31.361Z,97867.72
2023-04-22T14:10:59.357Z,97873.06
2023-04-22T14:13:27.468Z,97870.34
2023-04-22T14:15:54.062Z,97875.03
2023-04-22T14:18:22.120Z,97875.31
2023-04-22T14:20:49.151Z,97876.75
2023-04-22T14:23:15.825Z,97883.28
2023-04-22T14:25:43.797Z,97884.53
2023-04-22T14:28:10.470Z,97892.38
2023-04-22T14:30:37.097Z,97889.78
2023-04-22T14:33:06.965Z,97890.56
2023-04-22T14:35:36.405Z,97907.81
2023-04-22T14:38:05.585Z,97912.41
2023-04-22T14:40:32.115Z,97911.38
2023-04-22T14:43:00.898Z,97908.88
2023-04-22T14:45:29.268Z,97914.13
2023-04-22T14:47:56.984Z,97921.25
2023-04-22T14:50:23.619Z,97924.28
2023-04-22T14:52:50.991Z,97923.31
2023-04-22T14:55:23.358Z,97919.28
2023-04-22T14:57:52.279Z,97925.41
2023-04-22T15:00:19.017Z,97930.66
2023-04-22T15:02:45.854Z,97924.84
2023-04-22T15:05:12.338Z,97929.78
2023-04-22T15:07:38.856Z,97920.22
2023-04-22T15:10:05.786Z,97916.03
2023-04-22T15:12:32.318Z,97918.63
2023-04-22T15:14:58.827Z,97917.50
2023-04-22T15:17:25.672Z,97922.63
2023-04-22T15:19:54.823Z,97924.72
2023-04-22T15:22:21.262Z,97916.38
2023-04-22T15:24:47.730Z,97914.56
2023-04-22T15:27:14.263Z,97917.28
2023-04-22T15:29:45.017Z,97914.78
2023-04-22T15:32:11.616Z,97924.66
2023-04-22T15:34:38.152Z,97926.06
2023-04-22T15:37:04.768Z,97925.25
2023-04-22T15:39:31.249Z,97924.13
2023-04-22T15:41:57.760Z,97935.16
2023-04-22T15:44:24.321Z,97934.22
2023-04-22T15:46:53.947Z,97926.47
2023-04-22T15:49:20.548Z,97928.59
2023-04-22T15:51:47.549Z,97925.06
2023-04-22T15:54:14.040Z,97929.31
2023-04-22T15:56:40.796Z,97936.56
2023-04-22T15:59:07.398Z,97921.47
2023-04-22T16:01:33.913Z,97917.16
2023-04-22T16:04:01.140Z,97911.81
2023-04-22T16:06:28.066Z,97917.44
2023-04-22T16:08:55.186Z,97925.22
2023-04-22T16:11:21.743Z,97931.78
2023-04-22T16:13:48.182Z,97935.06
2023-04-22T16:16:14.713Z,97935.66
2023-04-22T16:18:44.094Z,97933.66
2023-04-22T16:21:11.144Z,97943.00
2023-04-22T16:23:37.727Z,97938.06
2023-04-22T16:26:05.798Z,97935.94
2023-04-22T16:28:32.463Z,97936.56
2023-04-22T16:30:59.082Z,97935.47
2023-04-22T16:33:25.868Z,97956.91
2023-04-22T16:35:52.360Z,97952.88
2023-04-22T16:38:18.821Z,97957.28
2023-04-22T16:40:45.492Z,97951.28
2023-04-22T16:43:13.005Z,97946.31
2023-04-22T16:45:39.691Z,97948.13
2023-04-22T16:48:06.329Z,97948.81
2023-04-22T16:50:32.829Z,97948.72
2023-04-22T16:52:59.293Z,97952.16
2023-04-22T16:55:25.772Z,97953.44
2023-04-22T16:57:52.298Z,97948.19
2023-04-22T17:00:18.819Z,97948.69
2023-04-22T17:02:45.669Z,97945.63
2023-04-22T17:05:12.303Z,97945.69
2023-04-22T17:07:38.839Z,97950.25
2023-04-22T17:10:05.984Z,97950.53
2023-04-22T17:12:32.545Z,97957.06
2023-04-22T17:14:59.056Z,97958.75
2023-04-22T17:17:25.725Z,97946.97
2023-04-22T17:19:52.327Z,97936.81
2023-04-22T17:22:18.905Z,97932.09
2023-04-22T17:24:46.135Z,97942.78
2023-04-22T17:27:15.155Z,97955.63
2023-04-22T17:29:41.954Z,97947.56
2023-04-22T17:32:08.903Z,97945.72
2023-04-22T17:34:35.543Z,97935.69
2023-04-22T17:37:02.095Z,97935.63
2023-04-22T17:39:28.652Z,97934.75
2023-04-22T17:41:55.470Z,97936.06
2023-04-22T17:44:21.965Z,97933.69
2023-04-22T17:46:48.530Z,97948.19
2023-04-22T17:49:15.011Z,97941.75
2023-04-22T17:51:41.561Z,97949.97
2023-04-22T17:54:08.048Z,97948.09
2023-04-22T17:56:34.623Z,97957.78
2023-04-22T17:59:01.125Z,97952.63
2023-04-22T18:01:29.600Z,97957.81
2023-04-22T18:03:56.812Z,97958.69
2023-04-22T18:06:23.433Z,97957.66
2023-04-22T18:08:49.993Z,97960.94
2023-04-22T18:11:16.678Z,97964.75
2023-04-22T18:13:43.149Z,97959.03
2023-04-22T18:16:09.659Z,97958.31
2023-04-22T18:18:36.362Z,97966.16
2023-04-22T18:21:03.147Z,97977.38
2023-04-22T18:23:29.673Z,97980.44
2023-04-22T18:25:56.341Z,97987.22
2023-04-22T18:28:22.823Z,97981.34
2023-04-22T18:30:49.405Z,97982.75
2023-04-22T18:33:15.920Z,97986.78
2023-04-22T18:35:42.512Z,97990.31
2023-04-22T18:38:08.955Z,97997.66
2023-04-22T18:40:35.608Z,97997.09
2023-04-22T18:43:02.677Z,97996.06
2023-04-22T18:45:29.140Z,97996.31
2023-04-22T18:47:55.766Z,97997.72
2023-04-22T18:50:22.453Z,97985.94
2023-04-22T18:52:48.976Z,97988.13
2023-04-22T18:55:15.650Z,97988.69
2023-04-22T18:57:43.667Z,97986.06
2023-04-22T19:00:12.658Z,97986.28
2023-04-22T19:02:41.487Z,97985.75
2023-04-22T19:05:09.578Z,97981.00
2023-04-22T19:07:37.179Z,97987.44
2023-04-22T19:10:04.349Z,97988.56
2023-04-22T19:12:31.095Z,97984.69
2023-04-22T19:15:00.206Z,97998.66
2023-04-22T19:17:27.518Z,97990.56
2023-04-22T19:19:54.312Z,97991.72
2023-04-22T19:22:24.247Z,97997.75
2023-04-22T19:24:51.992Z,97996.44
2023-04-22T19:27:18.986Z,97999.22
2023-04-22T19:29:51.177Z,98003.31
2023-04-22T19:32:18.288Z,98006.34
2023-04-22T19:34:44.844Z,98007.94
2023-04-22T19:37:11.523Z,98010.03
2023-04-22T19:39:38.018Z,98017.03
2023-04-22T19:42:04.870Z,98011.59
2023-04-22T19:44:31.657Z,98014.28
2023-04-22T19:46:58.302Z,98009.44
2023-04-22T19:49:25.124Z,98011.63
2023-04-22T19:51:52.617Z,98002.00
2023-04-22T19:54:22.731Z,98005.25
2023-04-22T19:56:49.378Z,98009.59
2023-04-22T19:59:16.212Z,98011.03
2023-04-22T20:01:43.005Z,98021.06
2023-04-22T20:04:10.058Z,98014.84
2023-04-22T20:06:37.513Z,98009.75
2023-04-22T20:09:05.504Z,98016.78
2023-04-22T20:11:32.966Z,98018.97
2023-04-22T20:14:00.063Z,98023.88
2023-04-22T20:16:27.711Z,98024.38
2023-04-22T20:18:54.529Z,98023.31
2023-04-22T20:21:21.891Z,98025.22
2023-04-22T20:23:51.298Z,98018.47
2023-04-22T20:26:20.629Z,98013.09
2023-04-22T20:28:54.675Z,98017.41
2023-04-22T20:31:23.083Z,98020.63
2023-04-22T20:33:51.094Z,98025.53
2023-04-22T20:36:19.717Z,98026.88
2023-04-22T20:38:49.151Z,98021.22
2023-04-22T20:41:18.734Z,98034.47
2023-04-22T20:43:46.458Z,98025.28
2023-04-22T20:46:13.013Z,98027.72
2023-04-22T20:48:39.580Z,98018.00
2023-04-22T20:51:06.132Z,98019.06
2023-04-22T20:53:32.711Z,98033.66
2023-04-22T20:55:59.207Z,98027.44
2023-04-22T20:58:26.679Z,98032.03
2023-04-22T21:00:53.509Z,98032.84
2023-04-22T21:03:22.813Z,98029.91
2023-04-22T21:05:50.186Z,98042.84
2023-04-22T21:08:22.768Z,98036.38
2023-04-22T21:10:51.167Z,98036.38
2023-04-22T21:13:18.179Z,98043.94
2023-04-22T21:15:59.644Z,98045.78
2023-04-22T21:18:28.890Z,98050.41
2023-04-22T21:20:57.085Z,98053.34
2023-04-22T21:23:24.921Z,98053.06
2023-04-22T21:25:54.908Z,98060.38
2023-04-22T21:28:21.882Z,98052.53
2023-04-22T21:30:48.677Z,98059.59
2023-04-22T21:33:15.276Z,98059.28
2023-04-22T21:35:41.845Z,98057.69
2023-04-22T21:38:09.121Z,98058.78
2023-04-22T21:40:36.269Z,98058.50
2023-04-22T21:43:04.410Z,98055.81
2023-04-22T21:45:31.258Z,98060.09
2023-04-22T21:48:00.832Z,98066.59
2023-04-22T21:50:30.126Z,98070.91
2023-04-22T21:52:56.744Z,98073.06
2023-04-22T21:55:23.391Z,98074.13
2023-04-22T21:57:49.896Z,98070.59
2023-04-22T22:00:19.071Z,98075.75
2023-04-22T22:02:47.360Z,98074.91
2023-04-22T22:05:16.842Z,98070.88
2023-04-22T22:07:44.797Z,98068.44
2023-04-22T22:10:14.534Z,98077.31
2023-04-22T22:12:41.665Z,98074.38
2023-04-22T22:15:09.148Z,98071.66
2023-04-22T22:17:38.030Z,98075.44
2023-04-22T22:20:12.512Z,98081.09
2023-04-22T22:22:39.884Z,98092.69
2023-04-22T22:25:07.717Z,98084.84
2023-04-22T22:27:35.283Z,98092.94
2023-04-22T22:30:01.846Z,98093.22
2023-04-22T22:32:28.354Z,98098.09
2023-04-22T22:34:54.897Z,98098.91
2023-04-22T22:37:21.474Z,98107.50
2023-04-22T22:39:47.994Z,98107.53
2023-04-22T22:42:14.880Z,98101.03
2023-04-22T22:44:41.622Z,98105.88
2023-04-22T22:47:09.386Z,98110.72
2023-04-22T22:49:36.122Z,98107.22
2023-04-22T22:52:02.637Z,98109.13
2023-04-22T22:54:29.178Z,98111.00
2023-04-22T22:56:57.803Z,98115.31
2023-04-22T22:59:24.301Z,98118.53
2023-04-22T23:01:50.947Z,98116.13
2023-04-22T23:04:17.896Z,98121.81
2023-04-22T23:06:44.536Z,98120.75
2023-04-22T23:09:11.282Z,98123.72
2023-04-22T23:11:37.759Z,98121.28
2023-04-22T23:14:04.620Z,98123.72
2023-04-22T23:16:31.543Z,98122.59
2023-04-22T23:21:25.578Z,98118.88
2023-04-22T23:23:52.719Z,98124.00
2023-04-22T23:26:19.584Z,98122.38
2023-04-22T23:28:46.617Z,98115.91
2023-04-22T23:31:14.655Z,98119.13
2023-04-22T23:33:42.399Z,98114.28
2023-04-22T23:36:10.645Z,98110.25
2023-04-22T23:38:37.090Z,98108.59
2023-04-22T23:41:03.663Z,98116.72
2023-04-22T23:43:30.144Z,98107.53
2023-04-22T23:45:56.799Z,98112.69
2023-04-22T23:48:23.357Z,98110.25
2023-04-22T23:50:49.811Z,98112.41
2023-04-22T23:53:16.267Z,98104.03
2023-04-22T23:55:43.238Z,98108.06
2023-04-22T23:58:09.941Z,98109.72
